Time;durP1;ratioP1;P1;durP2;ratioP2;P2;SDS_P1;SDS_P2;PMS_P1;PMS_P2;Temp;Humidity;BMP_temperature;BMP_pressure;BME280_temperature;BME280_humidity;BME280_pressure;Samples;Min_cycle;Max_cycle;Signal;HPM_P1;HPM_P2
2024/01/19 00:02:04;;;;;;;48.17;43.90;;;8.70;86.10;;;;;;12654949;28;20212;-73
2024/01/19 00:08:06;;;;;;;56.35;52.70;;;8.90;85.90;;;;;;12655221;28;20039;-73
2024/01/19 00:15:00;;;;;;;48.58;44.88;;;9.10;85.80;;;;;;12636625;28;20039;-73
2024/01/19 00:21:01;;;;;;;50.00;46.38;;;9.00;85.60;;;;;;12654399;28;20332;-73
2024/01/19 00:27:03;;;;;;;45.38;41.58;;;8.90;85.80;;;;;;12654001;28;20028;-73
2024/01/19 00:33:06;;;;;;;44.50;40.63;;;9.00;86.10;;;;;;12654047;28;20036;-74
2024/01/19 00:39:08;;;;;;;82.22;76.72;;;9.20;85.80;;;;;;12653925;28;20032;-73
2024/01/19 00:45:10;;;;;;;69.68;65.40;;;9.30;85.40;;;;;;12635748;28;20032;-73
2024/01/19 00:51:12;;;;;;;72.85;68.40;;;9.10;85.60;;;;;;12653698;28;20040;-73
2024/01/19 00:57:13;;;;;;;66.70;61.85;;;9.10;85.90;;;;;;12636008;28;20032;-73
2024/01/19 01:03:25;;;;;;;75.35;70.18;;;9.20;85.80;;;;;;12618565;28;20039;-73
2024/01/19 01:09:27;;;;;;;93.15;87.95;;;9.20;85.90;;;;;;12653913;28;20318;-73
2024/01/19 01:15:29;;;;;;;90.47;85.38;;;9.30;85.70;;;;;;12635041;28;20352;-74
2024/01/19 01:21:30;;;;;;;98.15;92.28;;;9.20;85.60;;;;;;12652884;28;20043;-73
2024/01/19 01:27:32;;;;;;;91.05;85.43;;;9.20;85.90;;;;;;12652995;28;20024;-73
2024/01/19 01:33:33;;;;;;;112.85;106.68;;;9.20;85.80;;;;;;12653333;28;20036;-73
2024/01/19 01:39:35;;;;;;;118.30;111.38;;;9.20;86.00;;;;;;12656567;28;20036;-73
2024/01/19 01:45:36;;;;;;;107.95;101.72;;;9.40;85.90;;;;;;12662121;28;20027;-73
2024/01/19 01:51:38;;;;;;;149.77;142.27;;;9.40;86.10;;;;;;12661203;28;20028;-73
2024/01/19 01:57:42;;;;;;;73.50;68.20;;;9.40;86.10;;;;;;12660930;28;20042;-73
2024/01/19 02:03:45;;;;;;;135.18;128.43;;;9.50;86.00;;;;;;12642602;28;20043;-73
2024/01/19 02:09:47;;;;;;;90.10;84.82;;;9.50;85.90;;;;;;12642388;28;20028;-73
2024/01/19 02:15:48;;;;;;;181.55;172.75;;;9.50;85.80;;;;;;12642147;28;20028;-73
2024/01/19 02:21:50;;;;;;;151.43;143.77;;;9.30;86.00;;;;;;12659781;28;20082;-73
2024/01/19 02:27:53;;;;;;;69.60;65.25;;;9.30;86.10;;;;;;12659608;28;20028;-73
2024/01/19 02:33:55;;;;;;;66.45;62.15;;;9.20;86.00;;;;;;12659321;28;20032;-73
2024/01/19 02:39:56;;;;;;;73.00;68.00;;;9.10;86.20;;;;;;12624429;28;20452;-73
2024/01/19 02:45:58;;;;;;;62.13;57.97;;;9.20;86.50;;;;;;12658681;28;20424;-73
2024/01/19 02:51:59;;;;;;;102.95;96.78;;;9.20;86.40;;;;;;12657539;28;20041;-73
2024/01/19 02:58:01;;;;;;;110.45;104.30;;;9.20;86.40;;;;;;12640170;28;20041;-73
2024/01/19 03:04:03;;;;;;;113.32;107.13;;;9.30;86.30;;;;;;12657797;28;20028;-73
2024/01/19 03:10:05;;;;;;;101.93;95.65;;;9.40;86.20;;;;;;12657527;28;20051;-73
2024/01/19 03:16:07;;;;;;;98.05;92.07;;;9.50;86.20;;;;;;12657843;28;20036;-73
2024/01/19 03:22:09;;;;;;;98.95;92.95;;;9.40;86.20;;;;;;12638862;28;20332;-73
2024/01/19 03:28:11;;;;;;;67.20;62.40;;;9.30;86.20;;;;;;12656669;28;20035;-73
2024/01/19 03:34:12;;;;;;;92.25;86.38;;;9.50;86.60;;;;;;12656974;28;20028;-73
2024/01/19 03:40:14;;;;;;;125.80;118.85;;;9.60;86.20;;;;;;12656147;28;20036;-73
2024/01/19 03:46:16;;;;;;;138.73;130.77;;;9.80;86.40;;;;;;12656348;28;20337;-73
2024/01/19 03:52:18;;;;;;;130.18;122.78;;;9.90;86.00;;;;;;12637641;28;20050;-73
2024/01/19 03:58:20;;;;;;;125.18;117.72;;;10.00;85.90;;;;;;12637389;28;20036;-73
2024/01/19 04:04:23;;;;;;;118.15;112.03;;;9.90;85.70;;;;;;12654978;28;20036;-73
2024/01/19 04:10:24;;;;;;;156.32;147.82;;;9.80;85.80;;;;;;12654991;28;20020;-73
2024/01/19 04:16:26;;;;;;;96.05;89.55;;;9.90;85.90;;;;;;12655316;28;20036;-73
2024/01/19 04:22:27;;;;;;;127.43;120.28;;;10.00;85.60;;;;;;12655024;28;20344;-74
2024/01/19 04:28:29;;;;;;;145.25;138.00;;;10.10;85.30;;;;;;12655073;28;20077;-74
2024/01/19 04:34:31;;;;;;;142.52;134.93;;;10.00;85.20;;;;;;12636087;28;20024;-73
2024/01/19 04:40:32;;;;;;;36.30;26.70;;;9.90;85.60;;;;;;12635875;28;20036;-75
2024/01/19 04:46:34;;;;;;;118.13;112.00;;;10.10;85.70;;;;;;12653729;28;20028;-74
2024/01/19 04:52:35;;;;;;;158.18;149.75;;;10.20;85.30;;;;;;12653698;28;20036;-74
2024/01/19 04:58:37;;;;;;;107.97;101.25;;;10.00;85.60;;;;;;12653527;28;20040;-74
2024/01/19 05:04:41;;;;;;;116.00;109.65;;;10.10;85.50;;;;;;12635476;28;20371;-74
2024/01/19 05:10:43;;;;;;;80.95;75.82;;;10.40;85.10;;;;;;12653291;28;20035;-74
2024/01/19 05:16:44;;;;;;;98.15;91.93;;;10.30;84.60;;;;;;12644290;28;20049;-74
2024/01/19 05:22:46;;;;;;;119.22;113.18;;;10.10;85.10;;;;;;12663548;28;20133;-74
2024/01/19 05:28:48;;;;;;;96.20;90.75;;;10.10;84.80;;;;;;12663136;28;20031;-74
2024/01/19 05:34:52;;;;;;;95.05;90.28;;;9.70;85.30;;;;;;12662249;28;20046;-74
2024/01/19 05:40:55;;;;;;;110.55;104.55;;;9.60;85.20;;;;;;12662584;28;20040;-74
2024/01/19 05:47:19;;;;;;;83.97;79.30;;;9.50;85.40;;;;;;12662311;28;20040;-74
2024/01/19 05:53:23;;;;;;;61.83;58.05;;;9.40;85.60;;;;;;12662675;28;20028;-74
2024/01/19 05:59:29;;;;;;;83.50;78.73;;;9.20;85.50;;;;;;12643588;28;20059;-74
2024/01/19 06:05:45;;;;;;;63.67;59.15;;;9.30;85.70;;;;;;12643082;28;20440;-74
2024/01/19 06:11:49;;;;;;;111.95;105.75;;;9.60;85.60;;;;;;12642806;28;20051;-74
2024/01/19 06:17:51;;;;;;;112.60;107.22;;;10.00;85.80;;;;;;12643057;28;20337;-74
2024/01/19 06:23:52;;;;;;;114.90;108.68;;;10.00;85.00;;;;;;12659454;28;20321;-74
2024/01/19 06:30:17;;;;;;;142.85;136.43;;;10.10;85.50;;;;;;12641660;28;20036;-74
2024/01/19 06:36:50;;;;;;;106.90;101.93;;;10.40;85.00;;;;;;12658986;28;20440;-74
2024/01/19 06:42:51;;;;;;;56.92;53.78;;;10.50;84.70;;;;;;12658573;28;20330;-74
2024/01/19 06:48:53;;;;;;;45.08;41.25;;;10.20;84.50;;;;;;12658684;28;20035;-74
2024/01/19 06:54:54;;;;;;;78.38;74.30;;;9.70;85.00;;;;;;12658379;28;20043;-74
2024/01/19 07:00:56;;;;;;;110.38;105.05;;;9.50;85.60;;;;;;12504609;22;20052;-75
2024/01/19 07:06:58;;;;;;;101.15;95.97;;;9.50;85.70;;;;;;12458742;28;20048;-75
2024/01/19 07:12:59;;;;;;;99.05;93.93;;;9.70;85.70;;;;;;12440892;28;20038;-75
2024/01/19 07:19:01;;;;;;;135.45;129.25;;;9.80;85.50;;;;;;12458098;28;20350;-74
2024/01/19 07:25:04;;;;;;;137.50;130.90;;;9.70;85.40;;;;;;12507334;28;20366;-75
2024/01/19 07:31:06;;;;;;;119.20;113.95;;;9.60;85.70;;;;;;12507151;28;20061;-75
2024/01/19 07:37:07;;;;;;;161.82;154.43;;;9.70;85.80;;;;;;12488578;28;20442;-74
2024/01/19 07:43:09;;;;;;;102.57;97.25;;;10.00;85.80;;;;;;12506454;28;20349;-75
2024/01/19 07:49:11;;;;;;;61.10;57.38;;;10.20;85.10;;;;;;12472488;28;20041;-74
2024/01/19 07:55:13;;;;;;;73.65;69.20;;;10.00;85.10;;;;;;12488502;28;20045;-75
2024/01/19 08:01:15;;;;;;;126.30;120.50;;;9.80;85.60;;;;;;12488704;28;20049;-74
2024/01/19 08:07:17;;;;;;;101.38;95.97;;;9.90;85.40;;;;;;12505527;28;20029;-74
2024/01/19 08:13:19;;;;;;;132.45;126.80;;;10.00;85.50;;;;;;12488341;28;20045;-74
2024/01/19 08:19:21;;;;;;;107.30;101.63;;;9.90;85.20;;;;;;12505069;28;20044;-75
2024/01/19 08:25:22;;;;;;;138.68;132.10;;;9.80;85.50;;;;;;12487244;28;20038;-75
2024/01/19 08:31:24;;;;;;;124.57;119.00;;;9.90;85.80;;;;;;12504670;28;20537;-75
2024/01/19 08:37:26;;;;;;;129.68;123.47;;;10.20;85.50;;;;;;12471251;28;20049;-75
2024/01/19 08:44:00;;;;;;;79.15;74.75;;;10.40;85.20;;;;;;12505034;28;20037;-75
2024/01/19 08:50:02;;;;;;;71.68;67.85;;;10.40;85.10;;;;;;12509679;28;20026;-74
2024/01/19 08:56:04;;;;;;;75.45;70.93;;;10.60;84.90;;;;;;12497365;28;20033;-74
2024/01/19 09:02:06;;;;;;;35.17;32.50;;;10.70;84.70;;;;;;12514077;28;20045;-75
2024/01/19 09:08:08;;;;;;;36.10;33.10;;;10.70;84.70;;;;;;12513758;28;20484;-75
2024/01/19 09:14:10;;;;;;;35.88;33.00;;;10.80;84.90;;;;;;12513497;28;20422;-74
2024/01/19 09:20:12;;;;;;;49.20;45.58;;;10.70;85.40;;;;;;12513167;28;20025;-74
2024/01/19 09:26:21;;;;;;;144.43;138.13;;;10.60;85.50;;;;;;12512890;28;20038;-74
2024/01/19 09:32:23;;;;;;;148.20;142.45;;;10.20;84.60;;;;;;12495866;28;20370;-73
2024/01/19 09:38:50;;;;;;;119.53;115.05;;;9.70;85.00;;;;;;12512473;28;20029;-74
2024/01/19 09:45:04;;;;;;;46.25;44.20;;;9.40;85.80;;;;;;12512162;28;20036;-72
2024/01/19 09:51:08;;;;;;;11.32;10.80;;;9.20;85.50;;;;;;12512487;28;20036;-74
2024/01/19 09:57:27;;;;;;;9.88;9.50;;;8.90;85.40;;;;;;12511540;28;20044;-75
2024/01/19 10:03:29;;;;;;;;;;;8.80;85.10;;;;;;12511428;28;20034;-74
2024/01/19 10:09:32;;;;;;;1.83;1.65;;;8.70;84.60;;;;;;12494488;28;19909;-73
2024/01/19 10:15:34;;;;;;;1.20;1.10;;;8.60;84.10;;;;;;12510783;28;20341;-74
2024/01/19 10:21:36;;;;;;;1.52;1.23;;;8.50;84.90;;;;;;12493079;28;20053;-74
2024/01/19 10:27:51;;;;;;;6.40;6.07;;;8.50;84.20;;;;;;12510154;28;20026;-74
2024/01/19 10:33:58;;;;;;;1.95;1.85;;;8.30;84.10;;;;;;12509904;28;20037;-73
2024/01/19 10:40:26;;;;;;;2.13;1.90;;;8.30;84.90;;;;;;12509700;28;20029;-73
2024/01/19 10:46:29;;;;;;;2.00;1.85;;;8.30;84.50;;;;;;12492915;28;20029;-74
2024/01/19 10:52:31;;;;;;;2.15;2.05;;;8.20;83.80;;;;;;12524437;28;20036;-71
2024/01/19 10:58:33;;;;;;;3.42;3.22;;;8.20;83.90;;;;;;12508880;28;20038;-72
2024/01/19 11:04:37;;;;;;;3.63;3.33;;;8.00;83.70;;;;;;12508189;28;20033;-72
2024/01/19 11:10:39;;;;;;;6.80;6.32;;;7.90;82.80;;;;;;12506760;28;20030;-73
2024/01/19 11:16:47;;;;;;;5.57;5.25;;;7.70;83.40;;;;;;12507874;28;20056;-72
2024/01/19 11:22:51;;;;;;;5.97;5.57;;;7.70;83.50;;;;;;12508260;28;20338;-73
2024/01/19 11:29:14;;;;;;;6.05;5.60;;;7.80;84.70;;;;;;12507345;28;20041;-72
2024/01/19 11:35:40;;;;;;;5.60;5.25;;;7.90;84.10;;;;;;12487854;28;20053;-72
2024/01/19 11:41:44;;;;;;;4.03;3.67;;;8.00;84.60;;;;;;12307391;28;20043;-71
2024/01/19 11:47:46;;;;;;;12.60;11.93;;;8.10;84.70;;;;;;12307121;29;20042;-71
2024/01/19 11:53:55;;;;;;;1.90;1.80;;;8.10;84.90;;;;;;12291242;29;20050;-73
2024/01/19 11:59:57;;;;;;;7.50;2.00;;;8.20;85.50;;;;;;12290484;29;20055;-73
2024/01/19 12:06:01;;;;;;;7.60;7.22;;;8.20;85.80;;;;;;12307422;29;20047;-75
2024/01/19 12:12:03;;;;;;;10.52;10.02;;;8.20;85.30;;;;;;12306449;29;20481;-75
2024/01/19 12:18:05;;;;;;;11.30;10.55;;;8.20;85.30;;;;;;12443123;28;20442;-76
2024/01/19 12:24:07;;;;;;;10.80;10.27;;;8.20;84.70;;;;;;12505097;28;20041;-76
2024/01/19 12:30:16;;;;;;;3.42;3.22;;;8.10;83.60;;;;;;12505839;28;20025;-75
2024/01/19 12:36:21;;;;;;;4.07;3.67;;;8.00;84.50;;;;;;12505465;28;20040;-76
2024/01/19 12:42:25;;;;;;;3.17;2.97;;;8.10;84.30;;;;;;12504678;28;20370;-75
2024/01/19 12:48:26;;;;;;;4.18;3.83;;;7.90;83.60;;;;;;12519993;28;20049;-75
2024/01/19 12:54:42;;;;;;;33.45;32.13;;;8.00;84.10;;;;;;12504405;28;20029;-74
2024/01/19 13:07:50;;;;;;;8.60;7.90;;;7.70;82.50;;;;;;12486341;28;20037;-74
2024/01/19 13:14:05;;;;;;;9.77;9.20;;;7.60;82.00;;;;;;12519174;28;20033;-75
2024/01/19 13:20:28;;;;;;;7.70;7.10;;;7.50;82.60;;;;;;12503899;28;20056;-74
2024/01/19 13:26:30;;;;;;;10.07;9.48;;;7.60;83.60;;;;;;12504368;28;20025;-74
2024/01/19 13:32:34;;;;;;;8.10;7.38;;;7.70;83.10;;;;;;12469849;28;20040;-75
2024/01/19 13:38:36;;;;;;;25.60;24.38;;;7.70;84.20;;;;;;12512173;28;20029;-75
2024/01/19 13:44:38;;;;;;;5.88;5.57;;;7.90;84.70;;;;;;12512388;28;20049;-74
2024/01/19 13:50:40;;;;;;;6.60;6.07;;;7.90;82.90;;;;;;12512143;28;20041;-75
2024/01/19 13:56:42;;;;;;;23.75;22.60;;;7.60;82.70;;;;;;12511622;28;20354;-74
2024/01/19 14:02:44;;;;;;;17.42;16.60;;;7.60;82.20;;;;;;12510260;28;20029;-74
2024/01/19 14:08:51;;;;;;;10.75;10.05;;;7.50;82.00;;;;;;12512147;28;20033;-74
2024/01/19 14:14:53;;;;;;;8.15;7.63;;;7.50;82.30;;;;;;12511083;28;20026;-75
2024/01/19 14:20:55;;;;;;;7.32;6.82;;;7.50;83.30;;;;;;12493163;28;20044;-75
2024/01/19 14:26:57;;;;;;;6.78;6.35;;;7.70;83.00;;;;;;12510526;28;20382;-75
2024/01/19 14:32:59;;;;;;;15.35;14.65;;;7.90;84.20;;;;;;12510128;28;20025;-74
2024/01/19 14:39:01;;;;;;;18.25;17.50;;;8.10;83.80;;;;;;12510538;28;20025;-74
2024/01/19 14:45:04;;;;;;;9.43;8.95;;;8.30;85.00;;;;;;12509260;28;20037;-75
2024/01/19 14:51:06;;;;;;;11.02;10.43;;;8.70;85.50;;;;;;12491712;28;20080;-74
2024/01/19 14:57:08;;;;;;;10.57;9.98;;;8.70;85.40;;;;;;12516109;23;20030;-75
2024/01/19 15:03:10;;;;;;;7.57;7.22;;;8.90;85.70;;;;;;12508624;28;20361;-75
2024/01/19 15:09:12;;;;;;;12.20;11.65;;;8.90;85.00;;;;;;12490499;28;20037;-72
2024/01/19 15:15:14;;;;;;;16.77;15.80;;;8.90;85.90;;;;;;12508042;28;20037;-72
2024/01/19 15:21:16;;;;;;;43.03;41.17;;;9.10;86.60;;;;;;12490745;28;20029;-72
2024/01/19 15:27:18;;;;;;;38.55;37.00;;;9.20;86.20;;;;;;12489831;28;20346;-72
2024/01/19 15:33:19;;;;;;;68.07;65.32;;;9.20;86.30;;;;;;12506111;28;20044;-72
2024/01/19 15:39:23;;;;;;;50.72;48.58;;;9.20;85.50;;;;;;12523412;28;20053;-72
2024/01/19 15:45:24;;;;;;;66.07;63.40;;;9.20;86.20;;;;;;12505491;28;20038;-72
2024/01/19 15:51:27;;;;;;;111.68;107.60;;;9.20;86.20;;;;;;12506389;28;20032;-72
2024/01/19 15:57:29;;;;;;;104.63;100.70;;;9.50;87.30;;;;;;12504369;28;20041;-72
2024/01/19 16:03:30;;;;;;;98.85;95.13;;;9.70;86.90;;;;;;12488016;28;20454;-72
2024/01/19 16:09:32;;;;;;;95.88;92.53;;;9.70;87.20;;;;;;12505514;28;20036;-72
2024/01/19 16:15:34;;;;;;;96.03;92.57;;;9.70;87.30;;;;;;12488216;28;20362;-72
2024/01/19 16:21:35;;;;;;;60.65;58.40;;;9.60;86.90;;;;;;12505167;28;20033;-72
2024/01/19 16:27:37;;;;;;;57.53;55.33;;;9.50;87.50;;;;;;12504954;28;20038;-72
2024/01/19 16:33:39;;;;;;;72.90;70.22;;;9.30;87.20;;;;;;12504781;28;20033;-72
2024/01/19 16:39:41;;;;;;;69.15;66.57;;;9.50;87.40;;;;;;12504623;28;20029;-71
2024/01/19 16:45:43;;;;;;;131.32;126.45;;;9.50;87.60;;;;;;12486955;28;20045;-71
2024/01/19 16:51:46;;;;;;;109.25;105.15;;;9.60;87.60;;;;;;12504306;28;20032;-71
2024/01/19 16:57:48;;;;;;;108.28;104.22;;;9.70;86.90;;;;;;12504270;28;20045;-71
2024/01/19 17:03:50;;;;;;;109.18;104.93;;;9.60;86.70;;;;;;12485687;28;20041;-71
2024/01/19 17:09:52;;;;;;;20.77;19.80;;;9.70;87.40;;;;;;12452831;28;20033;-71
2024/01/19 17:15:53;;;;;;;141.95;136.77;;;9.80;87.30;;;;;;12462147;28;20033;-71
2024/01/19 17:21:55;;;;;;;105.65;101.82;;;9.80;87.00;;;;;;12457714;28;20042;-72
2024/01/19 17:27:57;;;;;;;142.68;137.55;;;9.70;86.80;;;;;;12459129;28;20029;-71
2024/01/19 17:33:59;;;;;;;121.22;116.88;;;9.70;87.10;;;;;;12462800;28;20038;-71
2024/01/19 17:40:01;;;;;;;130.75;126.03;;;9.70;87.00;;;;;;12463483;28;20033;-72
2024/01/19 17:46:08;;;;;;;170.73;164.52;;;9.80;87.30;;;;;;12444931;28;20046;-72
2024/01/19 17:52:10;;;;;;;154.35;148.88;;;9.90;87.10;;;;;;12461946;28;20035;-71
2024/01/19 17:58:12;;;;;;;88.38;84.88;;;9.80;86.70;;;;;;12463230;28;20042;-72
2024/01/19 18:04:14;;;;;;;113.95;109.15;;;9.70;86.30;;;;;;12462710;28;20033;-72
2024/01/19 18:10:15;;;;;;;76.13;72.80;;;9.70;86.00;;;;;;12477825;28;20041;-72
2024/01/19 18:16:17;;;;;;;127.88;122.30;;;9.70;85.60;;;;;;12468842;28;20033;-71
2024/01/19 18:22:19;;;;;;;74.47;71.20;;;9.70;85.30;;;;;;12494451;28;20053;-72
2024/01/19 18:28:21;;;;;;;101.10;96.70;;;9.70;85.10;;;;;;12558071;28;20461;-71
2024/01/19 18:34:23;;;;;;;79.75;76.05;;;9.60;85.10;;;;;;12558451;28;20040;-72
2024/01/19 18:40:25;;;;;;;81.40;77.40;;;9.60;84.80;;;;;;12516534;28;20457;-71
2024/01/19 18:46:27;;;;;;;78.93;75.05;;;9.60;84.60;;;;;;12508981;28;20045;-71
2024/01/19 18:52:29;;;;;;;80.70;77.30;;;9.50;84.40;;;;;;12466675;28;20029;-71
2024/01/19 18:58:31;;;;;;;63.90;60.92;;;9.50;84.50;;;;;;12442391;28;20042;-72
2024/01/19 19:04:34;;;;;;;71.63;68.45;;;9.50;84.30;;;;;;12460026;28;20029;-72
2024/01/19 19:10:36;;;;;;;63.33;60.58;;;9.40;84.00;;;;;;12459059;28;20034;-72
2024/01/19 19:16:44;;;;;;;40.92;38.58;;;9.30;83.90;;;;;;12458705;28;20034;-71
2024/01/19 19:22:46;;;;;;;51.83;49.23;;;9.30;83.50;;;;;;12458356;28;20033;-71
2024/01/19 19:28:48;;;;;;;36.25;34.15;;;9.20;83.50;;;;;;12458113;28;20268;-72
2024/01/19 19:34:50;;;;;;;32.60;30.67;;;9.20;83.30;;;;;;12458000;28;20033;-72
2024/01/19 19:40:52;;;;;;;36.10;33.88;;;9.10;83.00;;;;;;12457788;28;20034;-72
2024/01/19 19:46:53;;;;;;;26.95;25.17;;;9.10;82.90;;;;;;12439915;28;20326;-72
2024/01/19 19:52:55;;;;;;;29.55;27.77;;;9.10;82.80;;;;;;12457141;28;20033;-72
2024/01/19 19:58:57;;;;;;;26.08;24.35;;;9.10;82.40;;;;;;12456654;28;20034;-72
2024/01/19 20:04:59;;;;;;;28.27;26.52;;;9.00;82.20;;;;;;12456483;28;20030;-72
2024/01/19 20:11:00;;;;;;;27.55;25.77;;;8.90;81.90;;;;;;12439592;28;20034;-72
2024/01/19 20:17:02;;;;;;;24.00;22.45;;;8.80;81.90;;;;;;12456269;28;20030;-71
2024/01/19 20:23:04;;;;;;;22.85;21.27;;;9.00;81.70;;;;;;12454792;28;20033;-71
2024/01/19 20:29:06;;;;;;;34.30;32.10;;;8.90;81.30;;;;;;12445478;28;20034;-71
2024/01/19 20:35:08;;;;;;;23.42;21.83;;;8.70;81.20;;;;;;12473587;28;20041;-72
2024/01/19 20:41:11;;;;;;;20.17;18.58;;;8.70;81.30;;;;;;12504377;28;20036;-72
2024/01/19 20:47:14;;;;;;;17.00;15.55;;;8.70;81.30;;;;;;12503328;28;20041;-72
2024/01/19 20:53:16;;;;;;;22.73;20.98;;;8.60;81.20;;;;;;12504221;28;20037;-71
2024/01/19 20:59:18;;;;;;;22.75;21.02;;;8.70;81.20;;;;;;12504460;28;20045;-71
2024/01/19 21:05:20;;;;;;;19.65;17.90;;;8.70;81.10;;;;;;12503828;28;20040;-71
2024/01/19 21:11:22;;;;;;;17.42;15.82;;;8.60;81.00;;;;;;12504318;28;20033;-71
2024/01/19 21:17:24;;;;;;;18.90;17.35;;;8.60;80.90;;;;;;12470073;28;20083;-72
2024/01/19 21:23:26;;;;;;;21.85;20.23;;;8.70;80.90;;;;;;12485908;28;20033;-72
2024/01/19 21:29:28;;;;;;;23.55;21.83;;;8.60;80.90;;;;;;12503586;28;20041;-71
2024/01/19 21:35:32;;;;;;;39.83;37.60;;;8.60;81.00;;;;;;12486602;28;20036;-72
2024/01/19 21:41:35;;;;;;;31.50;29.15;;;8.60;80.70;;;;;;12469495;28;20045;-72
2024/01/19 21:47:37;;;;;;;25.30;23.52;;;8.60;80.40;;;;;;12503744;28;20105;-72
2024/01/19 21:53:43;;;;;;;32.75;30.63;;;8.60;80.20;;;;;;12502999;28;20052;-72
2024/01/19 21:59:45;;;;;;;17.65;16.10;;;8.40;80.00;;;;;;12511505;28;20037;-72
2024/01/19 22:05:49;;;;;;;10.70;9.57;;;8.30;79.90;;;;;;12511381;28;20038;-72
2024/01/19 22:11:51;;;;;;;12.00;10.75;;;8.20;79.90;;;;;;12493371;28;20021;-72
2024/01/19 22:17:53;;;;;;;33.90;31.63;;;8.00;79.80;;;;;;12509722;28;20046;-72
2024/01/19 22:23:54;;;;;;;13.75;12.45;;;7.90;79.80;;;;;;12526002;28;20048;-72
2024/01/19 22:29:56;;;;;;;15.85;14.65;;;7.60;79.60;;;;;;12510268;28;20033;-72
2024/01/19 22:35:58;;;;;;;16.17;14.73;;;7.50;80.20;;;;;;12492339;28;20037;-72
2024/01/19 22:42:00;;;;;;;27.30;25.23;;;7.60;79.70;;;;;;12510490;28;20029;-72
2024/01/19 22:48:02;;;;;;;31.92;29.80;;;7.60;79.60;;;;;;12524904;28;20033;-72
2024/01/19 22:54:04;;;;;;;23.35;21.02;;;7.60;79.50;;;;;;12509304;28;20049;-71
2024/01/19 23:00:12;;;;;;;21.77;19.65;;;7.20;79.60;;;;;;12572446;23;20067;-71
2024/01/19 23:06:15;;;;;;;24.60;22.37;;;7.20;79.70;;;;;;12607567;28;20131;-71
2024/01/19 23:12:17;;;;;;;21.60;19.48;;;7.30;79.70;;;;;;12634407;28;20356;-72
2024/01/19 23:18:18;;;;;;;20.52;18.63;;;7.50;80.50;;;;;;12639398;28;20062;-72
2024/01/19 23:24:21;;;;;;;21.15;19.27;;;7.40;80.50;;;;;;12657847;28;20042;-72
2024/01/19 23:30:29;;;;;;;18.83;17.03;;;7.40;80.30;;;;;;12656928;28;20032;-72
2024/01/19 23:36:31;;;;;;;22.52;20.42;;;7.30;80.30;;;;;;12656738;28;20337;-72
2024/01/19 23:42:32;;;;;;;22.50;20.75;;;7.20;80.10;;;;;;12656363;28;20039;-72
2024/01/19 23:48:34;;;;;;;20.40;18.92;;;7.20;80.00;;;;;;12637955;28;20441;-72
2024/01/19 23:54:36;;;;;;;25.52;23.75;;;7.20;79.60;;;;;;12655792;28;20058;-72
